95MI weather

Evad Enterprises LLC Airport
Luther, Michigan, United States

Public forecast

Using degrees Fahrenheit for public forecast. Weather courtesy of forecast.io.

METAR (pilot weather report)

Closest report is Wexford County Airport, 17.6 nm (32.5 km) NE. Retrieved 2019/06/25 07:36 UTC (0 seconds ago):

KCAD 250736Z AUTO 23007KT 10SM OVC006 15/15 A2963 RMK AO2 T01570148

TAF (pilot weather forecast)

Closest forecast is Manistee Co Blacker Airport, 24.9 nm (46.0 km) WNW. Retrieved 2019/06/25 06:21 UTC (1 hour ago):

TAF KMBL 250520Z 2506/2606 22012G22KT P6SM -SHRA OVC018 FM250900 25010G19KT P6SM OVC019 FM251000 25009KT P6SM OVC080 FM251600 24011G19KT P6SM SCT250 FM252300 21012G21KT P6SM VCSH SCT050